sensor_id;sensor_type;location;lat;lon;timestamp;temperature;humidity
21121;DHT22;12519;43.318;21.898;2022-10-26T00:03:01;16.7;92.0
21121;DHT22;12519;43.318;21.898;2022-10-26T00:07:38;16.7;92.0
21121;DHT22;12519;43.318;21.898;2022-10-26T00:12:14;16.8;92.0
21121;DHT22;12519;43.318;21.898;2022-10-26T00:16:51;16.8;92.0
21121;DHT22;12519;43.318;21.898;2022-10-26T00:21:28;16.8;91.0
21121;DHT22;12519;43.318;21.898;2022-10-26T00:26:06;16.8;91.0
21121;DHT22;12519;43.318;21.898;2022-10-26T00:30:44;16.8;91.0
21121;DHT22;12519;43.318;21.898;2022-10-26T00:35:21;16.6;91.0
21121;DHT22;12519;43.318;21.898;2022-10-26T00:39:58;16.6;91.0
21121;DHT22;12519;43.318;21.898;2022-10-26T00:44:59;16.4;92.0
21121;DHT22;12519;43.318;21.898;2022-10-26T00:50:07;16.4;92.0
21121;DHT22;12519;43.318;21.898;2022-10-26T00:54:55;16.2;92.0
21121;DHT22;12519;43.318;21.898;2022-10-26T00:59:32;16.2;92.0
21121;DHT22;12519;43.318;21.898;2022-10-26T01:04:13;15.9;93.0
21121;DHT22;12519;43.318;21.898;2022-10-26T01:08:53;15.9;93.0
21121;DHT22;12519;43.318;21.898;2022-10-26T01:13:34;15.8;93.0
21121;DHT22;12519;43.318;21.898;2022-10-26T01:18:38;15.8;93.0
21121;DHT22;12519;43.318;21.898;2022-10-26T01:25:01;15.7;94.0
21121;DHT22;12519;43.318;21.898;2022-10-26T01:30:25;15.7;94.0
21121;DHT22;12519;43.318;21.898;2022-10-26T01:35:29;15.7;94.0
21121;DHT22;12519;43.318;21.898;2022-10-26T01:40:36;15.7;94.0
21121;DHT22;12519;43.318;21.898;2022-10-26T01:45:26;15.7;94.0
21121;DHT22;12519;43.318;21.898;2022-10-26T01:50:11;15.7;94.0
21121;DHT22;12519;43.318;21.898;2022-10-26T01:54:48;15.8;93.0
21121;DHT22;12519;43.318;21.898;2022-10-26T01:59:55;15.8;93.0
21121;DHT22;12519;43.318;21.898;2022-10-26T02:05:22;15.9;93.0
21121;DHT22;12519;43.318;21.898;2022-10-26T02:11:03;15.9;93.0
21121;DHT22;12519;43.318;21.898;2022-10-26T02:16:25;15.8;93.0
21121;DHT22;12519;43.318;21.898;2022-10-26T02:21:40;15.6;93.0
21121;DHT22;12519;43.318;21.898;2022-10-26T02:26:32;15.6;93.0
21121;DHT22;12519;43.318;21.898;2022-10-26T02:31:16;15.4;93.0
21121;DHT22;12519;43.318;21.898;2022-10-26T02:36:04;15.4;93.0
21121;DHT22;12519;43.318;21.898;2022-10-26T02:40:55;15.4;93.0
21121;DHT22;12519;43.318;21.898;2022-10-26T02:45:47;15.2;93.0
21121;DHT22;12519;43.318;21.898;2022-10-26T02:50:55;15.2;93.0
21121;DHT22;12519;43.318;21.898;2022-10-26T02:55:50;15.0;94.0
21121;DHT22;12519;43.318;21.898;2022-10-26T03:00:30;15.0;94.0
21121;DHT22;12519;43.318;21.898;2022-10-26T03:05:20;14.9;94.0
21121;DHT22;12519;43.318;21.898;2022-10-26T03:10:00;14.9;94.0
21121;DHT22;12519;43.318;21.898;2022-10-26T03:14:36;14.6;95.0
21121;DHT22;12519;43.318;21.898;2022-10-26T03:19:12;14.6;95.0
21121;DHT22;12519;43.318;21.898;2022-10-26T03:23:49;14.4;95.0
21121;DHT22;12519;43.318;21.898;2022-10-26T03:28:26;14.4;95.0
21121;DHT22;12519;43.318;21.898;2022-10-26T03:33:03;14.4;96.0
21121;DHT22;12519;43.318;21.898;2022-10-26T03:37:40;14.4;96.0
21121;DHT22;12519;43.318;21.898;2022-10-26T03:42:16;14.3;96.0
21121;DHT22;12519;43.318;21.898;2022-10-26T03:46:53;14.3;96.0
21121;DHT22;12519;43.318;21.898;2022-10-26T03:51:30;14.4;96.0
21121;DHT22;12519;43.318;21.898;2022-10-26T03:56:08;14.4;96.0
21121;DHT22;12519;43.318;21.898;2022-10-26T04:00:46;14.4;96.0
21121;DHT22;12519;43.318;21.898;2022-10-26T04:05:28;14.5;95.0
21121;DHT22;12519;43.318;21.898;2022-10-26T04:10:08;14.5;95.0
21121;DHT22;12519;43.318;21.898;2022-10-26T04:14:46;15.4;95.0
21121;DHT22;12519;43.318;21.898;2022-10-26T04:19:22;15.4;95.0
21121;DHT22;12519;43.318;21.898;2022-10-26T04:23:59;16.2;95.0
21121;DHT22;12519;43.318;21.898;2022-10-26T04:28:36;16.2;95.0
21121;DHT22;12519;43.318;21.898;2022-10-26T04:33:13;15.6;95.0
21121;DHT22;12519;43.318;21.898;2022-10-26T04:37:49;15.6;95.0
21121;DHT22;12519;43.318;21.898;2022-10-26T04:42:26;14.9;94.0
21121;DHT22;12519;43.318;21.898;2022-10-26T04:47:03;14.9;94.0
21121;DHT22;12519;43.318;21.898;2022-10-26T04:51:39;14.6;95.0
21121;DHT22;12519;43.318;21.898;2022-10-26T04:56:16;14.6;95.0
21121;DHT22;12519;43.318;21.898;2022-10-26T05:00:54;14.6;95.0
21121;DHT22;12519;43.318;21.898;2022-10-26T05:05:35;14.3;96.0
21121;DHT22;12519;43.318;21.898;2022-10-26T05:10:12;14.3;96.0
21121;DHT22;12519;43.318;21.898;2022-10-26T05:14:49;14.2;96.0
21121;DHT22;12519;43.318;21.898;2022-10-26T05:19:25;14.2;96.0
21121;DHT22;12519;43.318;21.898;2022-10-26T05:24:02;14.1;96.0
21121;DHT22;12519;43.318;21.898;2022-10-26T05:28:39;14.1;96.0
21121;DHT22;12519;43.318;21.898;2022-10-26T05:33:16;14.4;97.0
21121;DHT22;12519;43.318;21.898;2022-10-26T05:37:53;14.4;97.0
21121;DHT22;12519;43.318;21.898;2022-10-26T05:42:30;14.7;98.0
21121;DHT22;12519;43.318;21.898;2022-10-26T05:47:06;14.7;98.0
21121;DHT22;12519;43.318;21.898;2022-10-26T05:51:43;15.0;96.0
21121;DHT22;12519;43.318;21.898;2022-10-26T05:56:35;15.0;96.0
21121;DHT22;12519;43.318;21.898;2022-10-26T06:01:45;15.0;96.0
21121;DHT22;12519;43.318;21.898;2022-10-26T06:06:53;15.4;95.0
21121;DHT22;12519;43.318;21.898;2022-10-26T06:11:35;15.4;95.0
21121;DHT22;12519;43.318;21.898;2022-10-26T06:16:37;15.0;95.0
21121;DHT22;12519;43.318;21.898;2022-10-26T06:22:40;14.7;95.0
21121;DHT22;12519;43.318;21.898;2022-10-26T06:28:37;14.7;95.0
21121;DHT22;12519;43.318;21.898;2022-10-26T06:33:47;14.7;95.0
21121;DHT22;12519;43.318;21.898;2022-10-26T06:38:40;14.7;95.0
21121;DHT22;12519;43.318;21.898;2022-10-26T06:43:34;14.7;95.0
21121;DHT22;12519;43.318;21.898;2022-10-26T06:48:24;14.7;95.0
21121;DHT22;12519;43.318;21.898;2022-10-26T06:53:40;14.8;95.0
21121;DHT22;12519;43.318;21.898;2022-10-26T06:58:46;14.8;95.0
21121;DHT22;12519;43.318;21.898;2022-10-26T07:03:30;14.8;94.0
21121;DHT22;12519;43.318;21.898;2022-10-26T07:08:07;14.8;94.0
21121;DHT22;12519;43.318;21.898;2022-10-26T07:12:44;14.8;95.0
21121;DHT22;12519;43.318;21.898;2022-10-26T07:17:20;14.8;95.0
21121;DHT22;12519;43.318;21.898;2022-10-26T07:21:58;14.7;95.0
21121;DHT22;12519;43.318;21.898;2022-10-26T07:26:34;14.7;95.0
21121;DHT22;12519;43.318;21.898;2022-10-26T07:31:11;14.7;95.0
21121;DHT22;12519;43.318;21.898;2022-10-26T07:35:48;14.8;95.0
21121;DHT22;12519;43.318;21.898;2022-10-26T07:40:27;14.8;95.0
21121;DHT22;12519;43.318;21.898;2022-10-26T07:45:06;15.0;95.0
21121;DHT22;12519;43.318;21.898;2022-10-26T07:49:44;15.0;95.0
21121;DHT22;12519;43.318;21.898;2022-10-26T07:54:21;15.2;95.0
21121;DHT22;12519;43.318;21.898;2022-10-26T07:58:57;15.2;95.0
21121;DHT22;12519;43.318;21.898;2022-10-26T08:03:34;15.5;94.0
21121;DHT22;12519;43.318;21.898;2022-10-26T08:08:11;15.5;94.0
21121;DHT22;12519;43.318;21.898;2022-10-26T08:12:48;16.0;96.0
21121;DHT22;12519;43.318;21.898;2022-10-26T08:17:28;16.0;96.0
21121;DHT22;12519;43.318;21.898;2022-10-26T08:22:05;16.4;97.0
21121;DHT22;12519;43.318;21.898;2022-10-26T08:26:42;16.4;97.0
21121;DHT22;12519;43.318;21.898;2022-10-26T08:31:18;16.4;97.0
21121;DHT22;12519;43.318;21.898;2022-10-26T08:35:56;16.8;95.0
21121;DHT22;12519;43.318;21.898;2022-10-26T08:40:42;16.8;95.0
21121;DHT22;12519;43.318;21.898;2022-10-26T08:45:30;17.2;93.0
21121;DHT22;12519;43.318;21.898;2022-10-26T08:50:30;17.2;93.0
21121;DHT22;12519;43.318;21.898;2022-10-26T08:55:33;17.2;94.0
21121;DHT22;12519;43.318;21.898;2022-10-26T09:00:30;17.2;94.0
21121;DHT22;12519;43.318;21.898;2022-10-26T09:05:18;17.1;95.0
21121;DHT22;12519;43.318;21.898;2022-10-26T09:10:57;17.1;95.0
21121;DHT22;12519;43.318;21.898;2022-10-26T09:16:42;17.6;94.0
21121;DHT22;12519;43.318;21.898;2022-10-26T09:22:21;18.2;93.0
21121;DHT22;12519;43.318;21.898;2022-10-26T09:27:33;18.2;93.0
21121;DHT22;12519;43.318;21.898;2022-10-26T09:32:37;18.3;92.0
21121;DHT22;12519;43.318;21.898;2022-10-26T09:37:31;18.3;92.0
21121;DHT22;12519;43.318;21.898;2022-10-26T09:42:32;18.4;91.0
21121;DHT22;12519;43.318;21.898;2022-10-26T09:47:36;18.4;91.0
21121;DHT22;12519;43.318;21.898;2022-10-26T09:52:21;18.4;91.0
21121;DHT22;12519;43.318;21.898;2022-10-26T09:57:00;18.4;91.0
21121;DHT22;12519;43.318;21.898;2022-10-26T10:01:39;18.4;91.0
21121;DHT22;12519;43.318;21.898;2022-10-26T10:06:19;18.3;91.0
21121;DHT22;12519;43.318;21.898;2022-10-26T10:11:05;18.3;91.0
21121;DHT22;12519;43.318;21.898;2022-10-26T10:15:54;18.2;91.0
21121;DHT22;12519;43.318;21.898;2022-10-26T10:20:56;18.2;91.0
21121;DHT22;12519;43.318;21.898;2022-10-26T10:25:37;18.2;91.0
21121;DHT22;12519;43.318;21.898;2022-10-26T10:30:27;18.2;91.0
21121;DHT22;12519;43.318;21.898;2022-10-26T10:35:28;18.3;91.0
21121;DHT22;12519;43.318;21.898;2022-10-26T10:40:21;18.3;91.0
21121;DHT22;12519;43.318;21.898;2022-10-26T10:45:18;18.4;90.0
21121;DHT22;12519;43.318;21.898;2022-10-26T10:50:14;18.4;90.0
21121;DHT22;12519;43.318;21.898;2022-10-26T10:55:19;19.0;91.0
21121;DHT22;12519;43.318;21.898;2022-10-26T11:00:04;19.0;91.0
21121;DHT22;12519;43.318;21.898;2022-10-26T11:05:20;19.7;92.0
21121;DHT22;12519;43.318;21.898;2022-10-26T11:10:22;19.7;92.0
21121;DHT22;12519;43.318;21.898;2022-10-26T11:15:19;20.1;89.0
21121;DHT22;12519;43.318;21.898;2022-10-26T11:20:15;20.1;89.0
21121;DHT22;12519;43.318;21.898;2022-10-26T11:25:11;20.5;87.0
21121;DHT22;12519;43.318;21.898;2022-10-26T11:30:16;20.5;87.0
21121;DHT22;12519;43.318;21.898;2022-10-26T11:35:12;20.3;85.0
21121;DHT22;12519;43.318;21.898;2022-10-26T11:40:31;20.3;85.0
21121;DHT22;12519;43.318;21.898;2022-10-26T11:45:38;20.1;84.0
21121;DHT22;12519;43.318;21.898;2022-10-26T11:50:47;20.1;84.0
21121;DHT22;12519;43.318;21.898;2022-10-26T11:55:37;20.2;84.0
21121;DHT22;12519;43.318;21.898;2022-10-26T12:00:23;20.2;84.0
21121;DHT22;12519;43.318;21.898;2022-10-26T12:05:21;20.3;83.0
21121;DHT22;12519;43.318;21.898;2022-10-26T12:10:28;20.3;83.0
21121;DHT22;12519;43.318;21.898;2022-10-26T12:15:29;20.5;82.0
21121;DHT22;12519;43.318;21.898;2022-10-26T12:20:56;20.5;82.0
21121;DHT22;12519;43.318;21.898;2022-10-26T12:25:38;20.7;81.0
21121;DHT22;12519;43.318;21.898;2022-10-26T12:30:29;20.7;81.0
21121;DHT22;12519;43.318;21.898;2022-10-26T12:35:41;20.9;79.0
21121;DHT22;12519;43.318;21.898;2022-10-26T12:40:42;20.9;79.0
21121;DHT22;12519;43.318;21.898;2022-10-26T12:45:21;21.1;77.0
21121;DHT22;12519;43.318;21.898;2022-10-26T12:50:01;21.1;77.0
21121;DHT22;12519;43.318;21.898;2022-10-26T12:55:47;21.2;76.0
21121;DHT22;12519;43.318;21.898;2022-10-26T13:01:30;21.2;76.0
21121;DHT22;12519;43.318;21.898;2022-10-26T13:07:10;21.3;75.0
21121;DHT22;12519;43.318;21.898;2022-10-26T13:12:01;21.3;75.0
21121;DHT22;12519;43.318;21.898;2022-10-26T13:16:45;21.4;74.0
21121;DHT22;12519;43.318;21.898;2022-10-26T13:21:26;21.4;74.0
21121;DHT22;12519;43.318;21.898;2022-10-26T13:26:09;21.4;72.0
21121;DHT22;12519;43.318;21.898;2022-10-26T13:30:50;21.4;72.0
21121;DHT22;12519;43.318;21.898;2022-10-26T13:35:30;21.5;72.0
21121;DHT22;12519;43.318;21.898;2022-10-26T13:40:18;21.5;72.0
21121;DHT22;12519;43.318;21.898;2022-10-26T13:45:10;21.6;72.0
21121;DHT22;12519;43.318;21.898;2022-10-26T13:50:05;21.6;72.0
21121;DHT22;12519;43.318;21.898;2022-10-26T13:55:00;21.8;74.0
21121;DHT22;12519;43.318;21.898;2022-10-26T13:59:59;21.8;74.0
21121;DHT22;12519;43.318;21.898;2022-10-26T14:05:00;21.9;76.0
21121;DHT22;12519;43.318;21.898;2022-10-26T14:09:40;21.9;76.0
21121;DHT22;12519;43.318;21.898;2022-10-26T14:14:25;22.2;77.0
21121;DHT22;12519;43.318;21.898;2022-10-26T14:19:23;22.2;77.0
21121;DHT22;12519;43.318;21.898;2022-10-26T14:24:22;22.5;77.0
21121;DHT22;12519;43.318;21.898;2022-10-26T14:29:18;22.5;77.0
21121;DHT22;12519;43.318;21.898;2022-10-26T14:34:04;22.4;77.0
21121;DHT22;12519;43.318;21.898;2022-10-26T14:38:47;22.4;77.0
21121;DHT22;12519;43.318;21.898;2022-10-26T14:43:43;22.3;77.0
21121;DHT22;12519;43.318;21.898;2022-10-26T14:48:29;22.3;77.0
21121;DHT22;12519;43.318;21.898;2022-10-26T14:53:17;22.5;77.0
21121;DHT22;12519;43.318;21.898;2022-10-26T14:58:17;22.5;77.0
21121;DHT22;12519;43.318;21.898;2022-10-26T15:03:03;22.6;77.0
21121;DHT22;12519;43.318;21.898;2022-10-26T15:07:52;22.6;77.0
21121;DHT22;12519;43.318;21.898;2022-10-26T15:12:34;22.6;77.0
21121;DHT22;12519;43.318;21.898;2022-10-26T15:17:25;22.0;75.0
21121;DHT22;12519;43.318;21.898;2022-10-26T15:22:25;22.0;75.0
21121;DHT22;12519;43.318;21.898;2022-10-26T15:27:13;21.5;73.0
21121;DHT22;12519;43.318;21.898;2022-10-26T15:31:59;21.5;73.0
21121;DHT22;12519;43.318;21.898;2022-10-26T15:36:41;21.0;74.0
21121;DHT22;12519;43.318;21.898;2022-10-26T15:41:27;21.0;74.0
21121;DHT22;12519;43.318;21.898;2022-10-26T15:46:10;20.6;75.0
21121;DHT22;12519;43.318;21.898;2022-10-26T15:50:46;20.6;75.0
21121;DHT22;12519;43.318;21.898;2022-10-26T15:55:23;20.5;76.0
21121;DHT22;12519;43.318;21.898;2022-10-26T15:59:59;20.5;76.0
21121;DHT22;12519;43.318;21.898;2022-10-26T16:04:36;20.3;76.0
21121;DHT22;12519;43.318;21.898;2022-10-26T16:09:17;20.3;76.0
21121;DHT22;12519;43.318;21.898;2022-10-26T16:13:54;20.2;77.0
21121;DHT22;12519;43.318;21.898;2022-10-26T16:18:31;20.2;77.0
21121;DHT22;12519;43.318;21.898;2022-10-26T16:23:07;20.0;77.0
21121;DHT22;12519;43.318;21.898;2022-10-26T16:27:45;20.0;77.0
21121;DHT22;12519;43.318;21.898;2022-10-26T16:32:22;20.0;77.0
21121;DHT22;12519;43.318;21.898;2022-10-26T16:36:58;19.6;78.0
21121;DHT22;12519;43.318;21.898;2022-10-26T16:41:35;19.6;78.0
21121;DHT22;12519;43.318;21.898;2022-10-26T16:46:15;19.3;80.0
21121;DHT22;12519;43.318;21.898;2022-10-26T16:50:56;19.3;80.0
21121;DHT22;12519;43.318;21.898;2022-10-26T16:55:40;19.0;81.0
21121;DHT22;12519;43.318;21.898;2022-10-26T17:00:17;19.0;81.0
21121;DHT22;12519;43.318;21.898;2022-10-26T17:04:54;18.8;82.0
21121;DHT22;12519;43.318;21.898;2022-10-26T17:09:31;18.8;82.0
21121;DHT22;12519;43.318;21.898;2022-10-26T17:14:08;18.6;82.0
21121;DHT22;12519;43.318;21.898;2022-10-26T17:18:47;18.6;82.0
21121;DHT22;12519;43.318;21.898;2022-10-26T17:23:29;18.5;83.0
21121;DHT22;12519;43.318;21.898;2022-10-26T17:28:06;18.5;83.0
21121;DHT22;12519;43.318;21.898;2022-10-26T17:32:42;18.5;83.0
21121;DHT22;12519;43.318;21.898;2022-10-26T17:37:19;18.7;83.0
21121;DHT22;12519;43.318;21.898;2022-10-26T17:41:56;18.7;83.0
21121;DHT22;12519;43.318;21.898;2022-10-26T17:46:32;18.9;84.0
21121;DHT22;12519;43.318;21.898;2022-10-26T17:51:15;18.9;84.0
21121;DHT22;12519;43.318;21.898;2022-10-26T17:56:05;18.6;83.0
21121;DHT22;12519;43.318;21.898;2022-10-26T18:00:47;18.6;83.0
21121;DHT22;12519;43.318;21.898;2022-10-26T18:05:23;18.3;82.0
21121;DHT22;12519;43.318;21.898;2022-10-26T18:10:00;18.3;82.0
21121;DHT22;12519;43.318;21.898;2022-10-26T18:14:36;18.1;82.0
21121;DHT22;12519;43.318;21.898;2022-10-26T18:19:13;18.1;82.0
21121;DHT22;12519;43.318;21.898;2022-10-26T18:23:52;17.9;83.0
21121;DHT22;12519;43.318;21.898;2022-10-26T18:28:30;17.9;83.0
21121;DHT22;12519;43.318;21.898;2022-10-26T18:33:09;17.9;83.0
21121;DHT22;12519;43.318;21.898;2022-10-26T18:37:45;17.6;83.0
21121;DHT22;12519;43.318;21.898;2022-10-26T18:42:22;17.6;83.0
21121;DHT22;12519;43.318;21.898;2022-10-26T18:46:59;17.4;83.0
21121;DHT22;12519;43.318;21.898;2022-10-26T18:51:35;17.4;83.0
21121;DHT22;12519;43.318;21.898;2022-10-26T18:56:16;17.2;84.0
21121;DHT22;12519;43.318;21.898;2022-10-26T19:01:07;17.2;84.0
21121;DHT22;12519;43.318;21.898;2022-10-26T19:05:48;17.1;85.0
21121;DHT22;12519;43.318;21.898;2022-10-26T19:10:25;17.1;85.0
21121;DHT22;12519;43.318;21.898;2022-10-26T19:15:01;17.1;85.0
21121;DHT22;12519;43.318;21.898;2022-10-26T19:19:39;17.1;85.0
21121;DHT22;12519;43.318;21.898;2022-10-26T19:24:21;17.1;84.0
21121;DHT22;12519;43.318;21.898;2022-10-26T19:29:02;17.1;84.0
21121;DHT22;12519;43.318;21.898;2022-10-26T19:33:42;17.0;84.0
21121;DHT22;12519;43.318;21.898;2022-10-26T19:38:18;17.0;84.0
21121;DHT22;12519;43.318;21.898;2022-10-26T19:42:57;17.0;84.0
21121;DHT22;12519;43.318;21.898;2022-10-26T19:47:34;16.8;84.0
21121;DHT22;12519;43.318;21.898;2022-10-26T19:52:11;16.8;84.0
21121;DHT22;12519;43.318;21.898;2022-10-26T19:56:48;16.6;85.0
21121;DHT22;12519;43.318;21.898;2022-10-26T20:01:25;16.6;85.0
21121;DHT22;12519;43.318;21.898;2022-10-26T20:06:09;16.4;85.0
21121;DHT22;12519;43.318;21.898;2022-10-26T20:10:47;16.4;85.0
21121;DHT22;12519;43.318;21.898;2022-10-26T20:15:27;16.4;85.0
21121;DHT22;12519;43.318;21.898;2022-10-26T20:20:06;16.4;85.0
21121;DHT22;12519;43.318;21.898;2022-10-26T20:24:46;16.3;85.0
21121;DHT22;12519;43.318;21.898;2022-10-26T20:29:22;16.3;85.0
21121;DHT22;12519;43.318;21.898;2022-10-26T20:33:59;16.2;85.0
21121;DHT22;12519;43.318;21.898;2022-10-26T20:38:38;16.2;85.0
21121;DHT22;12519;43.318;21.898;2022-10-26T20:43:18;16.2;85.0
21121;DHT22;12519;43.318;21.898;2022-10-26T20:47:59;16.1;85.0
21121;DHT22;12519;43.318;21.898;2022-10-26T20:52:52;16.1;85.0
21121;DHT22;12519;43.318;21.898;2022-10-26T20:58:06;16.0;86.0
21121;DHT22;12519;43.318;21.898;2022-10-26T21:03:15;16.0;86.0
21121;DHT22;12519;43.318;21.898;2022-10-26T21:07:52;16.0;86.0
21121;DHT22;12519;43.318;21.898;2022-10-26T21:12:28;16.0;86.0
21121;DHT22;12519;43.318;21.898;2022-10-26T21:17:05;15.9;86.0
21121;DHT22;12519;43.318;21.898;2022-10-26T21:21:41;15.9;86.0
21121;DHT22;12519;43.318;21.898;2022-10-26T21:26:18;15.8;86.0
21121;DHT22;12519;43.318;21.898;2022-10-26T21:30:54;15.8;86.0
21121;DHT22;12519;43.318;21.898;2022-10-26T21:35:37;15.7;87.0
21121;DHT22;12519;43.318;21.898;2022-10-26T21:40:14;15.7;87.0
21121;DHT22;12519;43.318;21.898;2022-10-26T21:44:51;15.6;88.0
21121;DHT22;12519;43.318;21.898;2022-10-26T21:49:28;15.6;88.0
21121;DHT22;12519;43.318;21.898;2022-10-26T21:54:04;15.6;88.0
21121;DHT22;12519;43.318;21.898;2022-10-26T21:58:41;15.6;88.0
21121;DHT22;12519;43.318;21.898;2022-10-26T22:03:18;15.6;88.0
21121;DHT22;12519;43.318;21.898;2022-10-26T22:07:55;15.5;88.0
21121;DHT22;12519;43.318;21.898;2022-10-26T22:12:33;15.5;88.0
21121;DHT22;12519;43.318;21.898;2022-10-26T22:17:10;15.3;88.0
21121;DHT22;12519;43.318;21.898;2022-10-26T22:21:46;15.3;88.0
21121;DHT22;12519;43.318;21.898;2022-10-26T22:26:24;15.1;89.0
21121;DHT22;12519;43.318;21.898;2022-10-26T22:31:07;15.1;89.0
21121;DHT22;12519;43.318;21.898;2022-10-26T22:35:53;15.2;89.0
21121;DHT22;12519;43.318;21.898;2022-10-26T22:40:30;15.2;89.0
21121;DHT22;12519;43.318;21.898;2022-10-26T22:45:09;15.4;89.0
21121;DHT22;12519;43.318;21.898;2022-10-26T22:49:46;15.4;89.0
21121;DHT22;12519;43.318;21.898;2022-10-26T22:54:22;15.4;88.0
21121;DHT22;12519;43.318;21.898;2022-10-26T22:59:00;15.4;88.0
21121;DHT22;12519;43.318;21.898;2022-10-26T23:03:38;15.4;88.0
21121;DHT22;12519;43.318;21.898;2022-10-26T23:08:15;15.5;88.0
21121;DHT22;12519;43.318;21.898;2022-10-26T23:12:51;15.5;88.0
21121;DHT22;12519;43.318;21.898;2022-10-26T23:17:28;15.4;88.0
21121;DHT22;12519;43.318;21.898;2022-10-26T23:22:05;15.4;88.0
21121;DHT22;12519;43.318;21.898;2022-10-26T23:26:41;15.4;88.0
21121;DHT22;12519;43.318;21.898;2022-10-26T23:31:25;15.4;88.0
21121;DHT22;12519;43.318;21.898;2022-10-26T23:36:05;15.4;88.0
21121;DHT22;12519;43.318;21.898;2022-10-26T23:40:49;15.4;88.0
21121;DHT22;12519;43.318;21.898;2022-10-26T23:45:28;15.4;88.0
21121;DHT22;12519;43.318;21.898;2022-10-26T23:50:07;15.4;88.0
21121;DHT22;12519;43.318;21.898;2022-10-26T23:54:44;15.3;88.0
21121;DHT22;12519;43.318;21.898;2022-10-26T23:59:20;15.3;88.0
